createdAt,value
2023-01-21T00:01:15.933Z,14.30
2023-01-21T00:03:43.082Z,14.95
2023-01-21T00:06:10.491Z,15.43
2023-01-21T00:08:37.468Z,16.67
2023-01-21T00:11:22.172Z,15.23
2023-01-21T00:13:48.964Z,15.05
2023-01-21T00:16:16.648Z,15.55
2023-01-21T00:18:43.477Z,15.32
2023-01-21T00:21:10.429Z,15.10
2023-01-21T00:23:37.205Z,16.05
2023-01-21T00:26:06.227Z,14.65
2023-01-21T00:28:34.330Z,14.15
2023-01-21T00:31:03.645Z,15.57
2023-01-21T00:33:31.632Z,15.45
2023-01-21T00:36:06.891Z,14.93
2023-01-21T00:38:34.542Z,15.70
2023-01-21T00:41:10.083Z,14.63
2023-01-21T00:43:37.423Z,14.65
2023-01-21T00:46:04.384Z,15.10
2023-01-21T00:48:31.560Z,14.38
2023-01-21T00:51:01.692Z,16.50
2023-01-21T00:53:30.465Z,14.85
2023-01-21T00:56:02.496Z,14.23
2023-01-21T00:58:30.439Z,15.35
2023-01-21T01:01:14.461Z,14.68
2023-01-21T01:03:42.351Z,15.52
2023-01-21T01:06:21.410Z,15.90
2023-01-21T01:08:49.831Z,15.15
2023-01-21T01:11:18.335Z,15.30
2023-01-21T01:13:45.437Z,15.95
2023-01-21T01:16:15.220Z,14.25
2023-01-21T01:18:42.038Z,15.38
2023-01-21T01:21:12.939Z,16.13
2023-01-21T01:23:40.045Z,16.13
2023-01-21T01:26:10.299Z,17.13
2023-01-21T01:28:37.205Z,14.68
2023-01-21T01:31:06.542Z,16.13
2023-01-21T01:33:34.132Z,15.13
2023-01-21T01:36:06.364Z,15.07
2023-01-21T01:38:34.837Z,15.65
2023-01-21T01:41:01.920Z,14.82
2023-01-21T01:43:51.504Z,15.27
2023-01-21T01:46:18.835Z,14.77
2023-01-21T01:48:50.683Z,16.08
2023-01-21T01:51:22.420Z,16.00
2023-01-21T01:53:49.573Z,15.30
2023-01-21T01:56:16.546Z,15.45
2023-01-21T01:58:45.723Z,16.67
2023-01-21T02:01:12.645Z,16.80
2023-01-21T02:03:44.730Z,15.82
2023-01-21T02:06:13.584Z,16.08
2023-01-21T02:08:41.269Z,15.27
2023-01-21T02:11:19.284Z,15.98
2023-01-21T02:13:53.544Z,16.33
2023-01-21T02:16:39.134Z,16.38
2023-01-21T02:19:21.095Z,14.77
2023-01-21T02:22:06.712Z,14.55
2023-01-21T02:25:00.660Z,17.23
2023-01-21T02:28:18.194Z,15.80
2023-01-21T02:31:19.932Z,17.13
2023-01-21T02:33:52.443Z,16.00
2023-01-21T02:36:28.357Z,15.30
2023-01-21T02:39:17.009Z,15.95
2023-01-21T02:42:04.992Z,16.15
2023-01-21T02:44:37.522Z,16.17
2023-01-21T02:47:38.729Z,17.17
2023-01-21T02:50:17.864Z,16.65
2023-01-21T02:52:44.866Z,15.45
2023-01-21T02:55:16.689Z,16.23
2023-01-21T02:57:50.879Z,16.60
2023-01-21T03:00:28.955Z,16.65
2023-01-21T03:03:33.227Z,16.05
2023-01-21T03:06:03.033Z,15.20
2023-01-21T03:08:44.480Z,16.05
2023-01-21T03:11:18.311Z,15.27
2023-01-21T03:14:16.227Z,15.45
2023-01-21T03:16:58.111Z,14.75
2023-01-21T03:19:39.790Z,15.70
2023-01-21T03:22:15.121Z,16.17
2023-01-21T03:24:46.312Z,14.77
2023-01-21T03:27:17.213Z,14.13
2023-01-21T03:29:46.723Z,14.93
2023-01-21T03:32:16.057Z,14.52
2023-01-21T03:34:47.729Z,15.50
2023-01-21T03:37:46.519Z,15.85
2023-01-21T03:40:23.950Z,15.07
2023-01-21T03:42:52.651Z,15.50
2023-01-21T03:45:31.463Z,15.88
2023-01-21T03:48:04.512Z,14.63
2023-01-21T03:50:43.151Z,15.43
2023-01-21T03:53:10.371Z,14.30
2023-01-21T03:55:37.212Z,15.60
2023-01-21T03:58:04.087Z,15.85
2023-01-21T04:00:30.912Z,15.57
2023-01-21T04:02:57.687Z,15.43
2023-01-21T04:05:24.493Z,17.25
2023-01-21T04:07:51.268Z,14.45
2023-01-21T04:10:18.713Z,16.23
2023-01-21T04:12:45.634Z,15.07
2023-01-21T04:15:12.674Z,15.80
2023-01-21T04:17:39.513Z,16.75
2023-01-21T04:20:07.517Z,17.08
2023-01-21T04:22:34.305Z,16.60
2023-01-21T04:25:01.132Z,16.70
2023-01-21T04:27:27.898Z,16.10
2023-01-21T04:29:54.698Z,16.10
2023-01-21T04:32:21.482Z,17.15
2023-01-21T04:34:48.309Z,16.38
2023-01-21T04:37:15.108Z,17.73
2023-01-21T04:39:41.914Z,16.77
2023-01-21T04:42:08.691Z,17.55
2023-01-21T04:44:35.477Z,17.30
2023-01-21T04:47:02.276Z,17.50
2023-01-21T04:49:29.060Z,17.90
2023-01-21T04:51:55.887Z,18.35
2023-01-21T04:54:23.166Z,17.40
2023-01-21T04:56:49.970Z,17.45
2023-01-21T04:59:16.770Z,16.90
2023-01-21T05:01:43.578Z,17.85
2023-01-21T05:04:10.403Z,17.70
2023-01-21T05:06:37.342Z,16.90
2023-01-21T05:09:04.217Z,18.60
2023-01-21T05:11:30.980Z,16.50
2023-01-21T05:13:57.755Z,17.20
2023-01-21T05:16:24.570Z,17.08
2023-01-21T05:18:51.407Z,17.05
2023-01-21T05:21:18.162Z,17.10
2023-01-21T05:23:44.952Z,16.38
2023-01-21T05:26:11.719Z,17.52
2023-01-21T05:28:38.565Z,17.10
2023-01-21T05:31:05.645Z,17.05
2023-01-21T05:33:35.850Z,17.95
2023-01-21T05:36:04.085Z,17.40
2023-01-21T05:38:30.917Z,17.92
2023-01-21T05:40:59.495Z,16.50
2023-01-21T05:43:27.269Z,17.15
2023-01-21T05:45:54.427Z,17.42
2023-01-21T05:48:21.447Z,18.55
2023-01-21T05:50:48.983Z,18.50
2023-01-21T05:53:16.920Z,18.95
2023-01-21T05:55:43.845Z,16.50
2023-01-21T05:58:10.681Z,17.02
2023-01-21T06:00:37.662Z,16.48
2023-01-21T06:03:04.663Z,17.55
2023-01-21T06:05:31.503Z,18.42
2023-01-21T06:07:58.252Z,17.17
2023-01-21T06:10:25.098Z,16.52
2023-01-21T06:12:52.004Z,17.20
2023-01-21T06:15:19.825Z,16.88
2023-01-21T06:17:47.598Z,16.88
2023-01-21T06:20:14.744Z,17.25
2023-01-21T06:22:41.614Z,16.05
2023-01-21T06:25:08.768Z,15.00
2023-01-21T06:27:38.248Z,15.70
2023-01-21T06:30:09.563Z,15.15
2023-01-21T06:32:36.851Z,14.85
2023-01-21T06:35:04.369Z,15.15
2023-01-21T06:37:31.158Z,15.90
2023-01-21T06:39:57.958Z,15.07
2023-01-21T06:42:24.760Z,13.85
2023-01-21T06:44:51.522Z,15.70
2023-01-21T06:47:18.375Z,14.80
2023-01-21T06:49:45.138Z,14.50
2023-01-21T06:52:11.930Z,13.80
2023-01-21T06:54:38.756Z,14.63
2023-01-21T06:57:05.565Z,14.90
2023-01-21T06:59:32.345Z,15.77
2023-01-21T07:01:59.364Z,14.82
2023-01-21T07:04:27.184Z,13.18
2023-01-21T07:06:54.304Z,15.43
2023-01-21T07:09:21.357Z,14.90
2023-01-21T07:11:48.654Z,15.98
2023-01-21T07:14:15.500Z,14.85
2023-01-21T07:16:42.413Z,16.60
2023-01-21T07:19:09.236Z,15.23
2023-01-21T07:21:36.033Z,14.88
2023-01-21T07:24:02.948Z,15.57
2023-01-21T07:26:29.806Z,14.50
2023-01-21T07:28:56.650Z,15.07
2023-01-21T07:31:23.515Z,14.70
2023-01-21T07:33:50.327Z,14.90
2023-01-21T07:36:18.296Z,13.98
2023-01-21T07:38:45.068Z,14.77
2023-01-21T07:41:11.877Z,15.07
2023-01-21T07:43:38.636Z,15.52
2023-01-21T07:46:05.648Z,16.38
2023-01-21T07:48:32.484Z,15.10
2023-01-21T07:51:00.023Z,15.65
2023-01-21T07:53:27.548Z,15.32
2023-01-21T07:55:54.335Z,14.98
2023-01-21T07:58:21.134Z,16.42
2023-01-21T08:00:47.950Z,15.30
2023-01-21T08:03:14.827Z,14.95
2023-01-21T08:05:41.617Z,16.00
2023-01-21T08:08:08.460Z,14.52
2023-01-21T08:10:35.249Z,14.98
2023-01-21T08:13:02.227Z,15.40
2023-01-21T08:15:29.205Z,16.38
2023-01-21T08:17:56.836Z,15.43
2023-01-21T08:20:24.018Z,16.10
2023-01-21T08:22:50.987Z,15.85
2023-01-21T08:25:18.237Z,15.90
2023-01-21T08:27:45.341Z,15.48
2023-01-21T08:30:12.403Z,14.38
2023-01-21T08:32:39.277Z,16.27
2023-01-21T08:35:06.670Z,17.38
2023-01-21T08:37:33.577Z,16.15
2023-01-21T08:40:00.386Z,17.17
2023-01-21T08:42:27.315Z,16.80
2023-01-21T08:44:54.225Z,16.55
2023-01-21T08:47:21.122Z,17.00
2023-01-21T08:49:47.896Z,16.00
2023-01-21T08:52:17.021Z,15.63
2023-01-21T08:54:44.260Z,18.02
2023-01-21T08:57:11.546Z,15.30
2023-01-21T08:59:38.624Z,15.52
2023-01-21T09:02:05.690Z,15.80
2023-01-21T09:04:32.601Z,16.63
2023-01-21T09:06:59.378Z,16.27
2023-01-21T09:09:26.135Z,15.50
2023-01-21T09:11:53.557Z,15.77
2023-01-21T09:14:20.674Z,15.40
2023-01-21T09:16:50.855Z,14.93
2023-01-21T09:19:18.170Z,15.60
2023-01-21T09:21:44.981Z,15.95
2023-01-21T09:24:11.813Z,15.73
2023-01-21T09:26:44.074Z,15.05
2023-01-21T09:29:11.336Z,15.32
2023-01-21T09:31:38.117Z,15.10
2023-01-21T09:34:05.839Z,16.15
2023-01-21T09:36:35.009Z,15.27
2023-01-21T09:39:02.124Z,16.23
2023-01-21T09:41:44.195Z,16.33
2023-01-21T09:44:16.752Z,14.27
2023-01-21T09:46:54.679Z,15.05
2023-01-21T09:49:49.501Z,14.27
2023-01-21T09:52:44.182Z,15.40
2023-01-21T09:55:43.495Z,13.38
2023-01-21T09:58:25.260Z,14.90
2023-01-21T10:01:06.579Z,14.98
2023-01-21T10:04:01.965Z,14.75
2023-01-21T10:06:43.170Z,14.15
2023-01-21T10:09:37.723Z,15.07
2023-01-21T10:12:16.454Z,14.05
2023-01-21T10:15:24.235Z,14.45
2023-01-21T10:18:04.867Z,15.60
2023-01-21T10:20:33.750Z,15.80
2023-01-21T10:23:08.184Z,14.18
2023-01-21T10:25:36.664Z,15.98
2023-01-21T10:28:12.969Z,15.07
2023-01-21T10:30:43.447Z,14.57
2023-01-21T10:33:19.511Z,15.07
2023-01-21T10:35:55.198Z,13.93
2023-01-21T10:38:46.122Z,14.73
2023-01-21T10:41:34.532Z,15.05
2023-01-21T10:44:01.281Z,12.75
2023-01-21T10:46:36.558Z,14.13
2023-01-21T10:49:23.377Z,13.70
2023-01-21T10:52:00.701Z,13.63
2023-01-21T10:54:59.614Z,12.98
2023-01-21T10:57:55.967Z,14.02
2023-01-21T11:00:26.915Z,13.38
2023-01-21T11:03:10.899Z,13.63
2023-01-21T11:05:39.035Z,13.23
2023-01-21T11:08:05.872Z,13.30
2023-01-21T11:10:33.298Z,13.77
2023-01-21T11:13:00.079Z,13.38
2023-01-21T11:15:33.230Z,13.18
2023-01-21T11:18:00.136Z,14.50
2023-01-21T11:20:38.959Z,12.30
2023-01-21T11:23:07.301Z,12.80
2023-01-21T11:25:36.811Z,13.43
2023-01-21T11:28:05.145Z,12.60
2023-01-21T11:30:50.100Z,13.23
2023-01-21T11:33:27.244Z,12.77
2023-01-21T11:35:55.418Z,12.45
2023-01-21T11:38:34.050Z,13.15
2023-01-21T11:41:22.847Z,12.48
2023-01-21T11:43:55.432Z,12.43
2023-01-21T11:46:38.291Z,12.85
2023-01-21T11:49:08.123Z,11.65
2023-01-21T11:51:42.834Z,11.57
2023-01-21T11:54:18.961Z,12.60
2023-01-21T11:57:00.787Z,12.45
2023-01-21T11:59:44.491Z,11.82
2023-01-21T12:02:25.460Z,12.20
2023-01-21T12:04:56.835Z,13.10
2023-01-21T12:07:34.552Z,12.23
2023-01-21T12:10:13.485Z,11.80
2023-01-21T12:12:58.945Z,11.63
2023-01-21T12:15:48.449Z,12.73
2023-01-21T12:18:47.851Z,11.13
2023-01-21T12:21:36.286Z,11.13
2023-01-21T12:24:30.719Z,10.68
2023-01-21T12:27:18.809Z,11.02
2023-01-21T12:29:54.580Z,10.73
2023-01-21T12:32:29.696Z,10.90
2023-01-21T12:35:08.454Z,11.52
2023-01-21T12:37:49.193Z,12.10
2023-01-21T12:40:27.571Z,10.35
2023-01-21T12:42:58.080Z,10.13
2023-01-21T12:45:32.425Z,11.10
2023-01-21T12:48:24.520Z,11.50
2023-01-21T12:51:16.501Z,10.45
2023-01-21T12:54:02.365Z,10.20
2023-01-21T12:56:58.779Z,10.45
2023-01-21T12:59:39.754Z,10.65
2023-01-21T13:02:22.707Z,10.55
2023-01-21T13:05:04.135Z,9.90
2023-01-21T13:07:45.911Z,10.18
2023-01-21T13:10:37.320Z,9.75
2023-01-21T13:13:17.225Z,9.88
2023-01-21T13:15:48.017Z,10.93
2023-01-21T13:18:19.604Z,9.20
2023-01-21T13:20:53.883Z,10.88
2023-01-21T13:23:26.255Z,10.63
2023-01-21T13:26:01.981Z,9.85
2023-01-21T13:28:48.305Z,9.45
2023-01-21T13:31:30.549Z,9.75
2023-01-21T13:34:16.087Z,10.10
2023-01-21T13:37:12.338Z,9.30
2023-01-21T13:39:53.460Z,10.30
2023-01-21T13:42:37.370Z,10.95
2023-01-21T13:45:45.197Z,10.40
2023-01-21T13:48:34.277Z,9.82
2023-01-21T13:51:14.180Z,10.90
2023-01-21T13:53:53.414Z,9.98
2023-01-21T13:56:23.013Z,9.45
2023-01-21T13:58:56.242Z,10.30
2023-01-21T14:01:36.651Z,10.55
2023-01-21T14:04:17.053Z,10.00
2023-01-21T14:06:53.115Z,9.95
2023-01-21T14:09:37.160Z,9.93
2023-01-21T14:12:28.081Z,10.35
2023-01-21T14:15:12.848Z,11.57
2023-01-21T14:18:15.809Z,10.85
2023-01-21T14:21:16.869Z,11.35
2023-01-21T14:24:10.741Z,9.68
2023-01-21T14:26:59.231Z,11.20
2023-01-21T14:29:46.979Z,10.38
2023-01-21T14:32:39.805Z,10.55
2023-01-21T14:35:21.219Z,9.88
2023-01-21T14:38:10.546Z,10.07
2023-01-21T14:41:03.697Z,10.90
2023-01-21T14:43:30.441Z,10.68
2023-01-21T14:45:59.871Z,9.80
2023-01-21T14:48:29.696Z,10.63
2023-01-21T14:51:11.789Z,11.50
2023-01-21T14:53:49.095Z,9.95
2023-01-21T14:56:25.668Z,10.13
2023-01-21T14:58:58.606Z,10.32
2023-01-21T15:01:44.714Z,10.10
2023-01-21T15:04:26.290Z,10.95
2023-01-21T15:06:59.271Z,9.07
2023-01-21T15:09:33.940Z,8.85
2023-01-21T15:12:05.906Z,9.65
2023-01-21T15:14:39.425Z,9.32
2023-01-21T15:17:46.073Z,9.70
2023-01-21T15:20:49.590Z,9.73
2023-01-21T15:23:22.256Z,8.18
2023-01-21T15:26:19.347Z,8.70
2023-01-21T15:28:55.947Z,9.40
2023-01-21T15:31:25.550Z,8.40
2023-01-21T15:33:55.384Z,7.88
2023-01-21T15:36:32.306Z,8.88
2023-01-21T15:39:12.745Z,8.35
2023-01-21T15:42:15.135Z,8.50
2023-01-21T15:44:48.245Z,8.68
2023-01-21T15:47:23.764Z,8.45
2023-01-21T15:50:02.575Z,9.27
2023-01-21T15:53:04.108Z,9.07
2023-01-21T15:55:55.687Z,9.45
2023-01-21T15:58:28.420Z,8.20
2023-01-21T16:00:57.917Z,8.57
2023-01-21T16:03:32.951Z,7.72
2023-01-21T16:06:21.955Z,8.75
2023-01-21T16:09:08.655Z,7.68
2023-01-21T16:11:57.458Z,8.40
2023-01-21T16:14:52.655Z,9.00
2023-01-21T16:17:25.485Z,8.13
2023-01-21T16:19:56.111Z,9.48
2023-01-21T16:22:27.408Z,8.85
2023-01-21T16:25:00.618Z,8.10
2023-01-21T16:27:31.048Z,8.05
2023-01-21T16:30:02.880Z,8.43
2023-01-21T16:32:32.315Z,8.52
2023-01-21T16:35:00.072Z,8.05
2023-01-21T16:37:29.202Z,8.40
2023-01-21T16:40:20.598Z,8.38
2023-01-21T16:42:47.374Z,8.40
2023-01-21T16:45:19.926Z,8.02
2023-01-21T16:47:54.101Z,8.05
2023-01-21T16:50:24.692Z,7.90
2023-01-21T16:52:53.111Z,8.60
2023-01-21T16:55:22.829Z,8.57
2023-01-21T16:57:51.754Z,8.27
2023-01-21T17:00:36.698Z,8.63
2023-01-21T17:03:04.656Z,8.30
2023-01-21T17:05:35.224Z,8.20
2023-01-21T17:08:08.774Z,8.25
2023-01-21T17:10:39.291Z,8.98
2023-01-21T17:13:12.744Z,7.75
2023-01-21T17:15:49.334Z,9.30
2023-01-21T17:18:22.572Z,8.45
2023-01-21T17:20:54.330Z,8.05
2023-01-21T17:23:26.108Z,8.45
2023-01-21T17:26:18.249Z,8.80
2023-01-21T17:28:47.495Z,7.65
2023-01-21T17:31:14.350Z,8.45
2023-01-21T17:33:44.600Z,9.05
2023-01-21T17:36:16.080Z,8.80
2023-01-21T17:38:45.690Z,7.95
2023-01-21T17:41:34.629Z,8.93
2023-01-21T17:44:24.055Z,7.72
2023-01-21T17:46:53.577Z,7.45
2023-01-21T17:49:23.435Z,8.30
2023-01-21T17:51:52.243Z,8.35
2023-01-21T17:54:24.885Z,8.05
2023-01-21T17:56:56.839Z,7.75
2023-01-21T17:59:41.101Z,8.18
2023-01-21T18:02:12.359Z,9.20
2023-01-21T18:04:39.855Z,8.48
2023-01-21T18:07:21.802Z,8.60
2023-01-21T18:09:49.587Z,8.65
2023-01-21T18:12:19.394Z,8.38
2023-01-21T18:14:46.829Z,8.20
2023-01-21T18:17:18.098Z,8.43
2023-01-21T18:19:45.041Z,9.13
2023-01-21T18:22:38.212Z,8.75
2023-01-21T18:25:06.562Z,8.27
2023-01-21T18:27:33.333Z,8.50
2023-01-21T18:30:00.468Z,9.18
2023-01-21T18:32:27.291Z,8.73
2023-01-21T18:34:54.079Z,8.93
2023-01-21T18:37:20.861Z,9.40
2023-01-21T18:39:47.808Z,8.75
2023-01-21T18:42:16.834Z,9.75
2023-01-21T18:44:44.571Z,10.18
2023-01-21T18:47:13.369Z,8.60
2023-01-21T18:49:40.373Z,8.57
2023-01-21T18:52:10.197Z,9.10
2023-01-21T18:54:36.947Z,8.65
2023-01-21T18:57:03.879Z,9.13
2023-01-21T18:59:30.677Z,8.75
2023-01-21T19:01:57.659Z,9.50
2023-01-21T19:04:24.450Z,9.35
2023-01-21T19:06:53.311Z,10.13
2023-01-21T19:09:23.049Z,8.77
2023-01-21T19:11:50.537Z,9.27
2023-01-21T19:14:17.679Z,9.60
2023-01-21T19:16:45.487Z,8.43
2023-01-21T19:19:14.631Z,8.45
2023-01-21T19:21:41.970Z,9.43
2023-01-21T19:24:11.763Z,8.40
2023-01-21T19:26:39.027Z,9.95
2023-01-21T19:29:11.202Z,9.80
2023-01-21T19:31:38.097Z,8.80
2023-01-21T19:34:04.925Z,8.65
2023-01-21T19:36:31.827Z,9.55
2023-01-21T19:38:59.541Z,9.93
2023-01-21T19:41:26.310Z,9.75
2023-01-21T19:43:53.320Z,9.18
2023-01-21T19:46:23.146Z,9.27
2023-01-21T19:48:50.537Z,8.52
2023-01-21T19:51:17.364Z,9.45
2023-01-21T19:53:44.279Z,9.18
2023-01-21T19:56:16.981Z,10.25
2023-01-21T19:58:43.839Z,10.15
2023-01-21T20:01:11.288Z,9.70
2023-01-21T20:03:40.063Z,9.70
2023-01-21T20:06:12.473Z,10.38
2023-01-21T20:08:39.227Z,10.05
2023-01-21T20:11:06.197Z,8.70
2023-01-21T20:13:36.479Z,9.88
2023-01-21T20:16:15.501Z,9.55
2023-01-21T20:18:42.950Z,10.32
2023-01-21T20:21:09.742Z,11.10
2023-01-21T20:23:36.608Z,9.75
2023-01-21T20:26:10.952Z,9.65
2023-01-21T20:28:46.775Z,10.65
2023-01-21T20:31:14.004Z,9.95
2023-01-21T20:33:42.457Z,10.00
2023-01-21T20:36:22.363Z,9.85
2023-01-21T20:38:49.477Z,9.68
2023-01-21T20:41:16.656Z,10.35
2023-01-21T20:43:43.529Z,10.50
2023-01-21T20:46:27.468Z,9.77
2023-01-21T20:48:54.613Z,9.40
2023-01-21T20:51:21.571Z,10.18
2023-01-21T20:53:48.517Z,10.63
2023-01-21T20:56:30.736Z,10.27
2023-01-21T20:58:58.296Z,9.57
2023-01-21T21:01:26.442Z,10.18
2023-01-21T21:03:53.592Z,11.27
2023-01-21T21:06:23.270Z,10.45
2023-01-21T21:08:50.622Z,10.40
2023-01-21T21:11:18.708Z,10.88
2023-01-21T21:13:48.434Z,10.70
2023-01-21T21:16:20.040Z,11.70
2023-01-21T21:18:47.614Z,9.88
2023-01-21T21:21:15.873Z,10.45
2023-01-21T21:23:46.536Z,10.80
2023-01-21T21:26:24.899Z,11.02
2023-01-21T21:28:55.673Z,11.75
2023-01-21T21:31:23.383Z,11.98
2023-01-21T21:33:50.491Z,10.98
2023-01-21T21:36:19.647Z,10.50
2023-01-21T21:38:47.604Z,10.65
2023-01-21T21:41:37.912Z,11.68
2023-01-21T21:44:05.728Z,11.43
2023-01-21T21:46:51.291Z,11.20
2023-01-21T21:49:18.160Z,12.00
2023-01-21T21:51:45.958Z,11.43
2023-01-21T21:54:15.047Z,10.55
2023-01-21T21:56:42.440Z,10.07
2023-01-21T21:59:09.264Z,11.45
2023-01-21T22:01:36.176Z,12.55
2023-01-21T22:04:04.430Z,9.15
2023-01-21T22:06:32.215Z,12.23
2023-01-21T22:08:59.750Z,11.18
2023-01-21T22:11:27.867Z,10.32
2023-01-21T22:13:56.065Z,11.82
2023-01-21T22:16:25.992Z,11.30
2023-01-21T22:18:53.639Z,12.00
2023-01-21T22:21:22.955Z,11.00
2023-01-21T22:23:50.865Z,11.32
2023-01-21T22:26:19.932Z,11.40
2023-01-21T22:28:46.976Z,11.20
2023-01-21T22:31:32.913Z,11.73
2023-01-21T22:34:00.737Z,10.23
2023-01-21T22:36:29.810Z,12.88
2023-01-21T22:38:56.657Z,10.30
2023-01-21T22:41:24.608Z,11.80
2023-01-21T22:43:52.876Z,12.55
2023-01-21T22:46:22.759Z,10.77
2023-01-21T22:48:49.932Z,11.65
2023-01-21T22:51:19.325Z,10.75
2023-01-21T22:53:46.388Z,10.60
2023-01-21T22:56:15.542Z,10.38
2023-01-21T22:58:42.543Z,11.20
2023-01-21T23:01:22.542Z,11.95
2023-01-21T23:03:49.646Z,10.98
2023-01-21T23:06:17.249Z,11.00
2023-01-21T23:08:44.154Z,10.52
2023-01-21T23:11:13.813Z,11.40
2023-01-21T23:13:40.692Z,10.38
2023-01-21T23:16:09.999Z,11.40
2023-01-21T23:18:40.373Z,11.73
2023-01-21T23:21:09.664Z,12.73
2023-01-21T23:23:37.909Z,11.35
2023-01-21T23:26:07.338Z,10.77
2023-01-21T23:28:34.935Z,11.55
2023-01-21T23:31:09.157Z,11.57
2023-01-21T23:33:36.435Z,11.73
2023-01-21T23:36:03.631Z,11.23
2023-01-21T23:38:30.903Z,11.60
2023-01-21T23:40:58.235Z,11.13
2023-01-21T23:43:26.633Z,11.30
2023-01-21T23:45:54.651Z,11.48
2023-01-21T23:48:21.866Z,12.35
2023-01-21T23:50:48.665Z,11.48
2023-01-21T23:53:15.516Z,11.40
2023-01-21T23:55:42.364Z,12.75
2023-01-21T23:58:09.159Z,11.93
